sensor_id;sensor_type;location;lat;lon;timestamp;P1;durP1;ratioP1;P2;durP2;ratioP2
11703;SDS011;5908;51.354;7.458;2023-06-26T00:01:38;7.20;;;6.60;;
11703;SDS011;5908;51.354;7.458;2023-06-26T00:04:05;7.53;;;6.53;;
11703;SDS011;5908;51.354;7.458;2023-06-26T00:06:32;6.82;;;6.10;;
11703;SDS011;5908;51.354;7.458;2023-06-26T00:09:00;8.70;;;7.90;;
11703;SDS011;5908;51.354;7.458;2023-06-26T00:11:27;7.65;;;6.93;;
11703;SDS011;5908;51.354;7.458;2023-06-26T00:13:55;8.88;;;7.75;;
11703;SDS011;5908;51.354;7.458;2023-06-26T00:16:23;7.90;;;6.90;;
11703;SDS011;5908;51.354;7.458;2023-06-26T00:18:50;7.22;;;6.40;;
11703;SDS011;5908;51.354;7.458;2023-06-26T00:21:17;6.60;;;6.00;;
11703;SDS011;5908;51.354;7.458;2023-06-26T00:23:44;7.40;;;6.72;;
11703;SDS011;5908;51.354;7.458;2023-06-26T00:26:11;7.40;;;6.57;;
11703;SDS011;5908;51.354;7.458;2023-06-26T00:28:37;7.28;;;6.57;;
11703;SDS011;5908;51.354;7.458;2023-06-26T00:31:04;6.43;;;5.82;;
11703;SDS011;5908;51.354;7.458;2023-06-26T00:33:32;6.70;;;6.10;;
11703;SDS011;5908;51.354;7.458;2023-06-26T00:35:59;6.68;;;6.00;;
11703;SDS011;5908;51.354;7.458;2023-06-26T00:38:26;6.72;;;6.13;;
11703;SDS011;5908;51.354;7.458;2023-06-26T00:40:52;6.68;;;5.97;;
11703;SDS011;5908;51.354;7.458;2023-06-26T00:43:21;7.80;;;6.03;;
11703;SDS011;5908;51.354;7.458;2023-06-26T00:45:47;6.93;;;6.22;;
11703;SDS011;5908;51.354;7.458;2023-06-26T00:48:14;7.97;;;6.63;;
11703;SDS011;5908;51.354;7.458;2023-06-26T00:50:42;6.68;;;6.03;;
11703;SDS011;5908;51.354;7.458;2023-06-26T00:53:09;7.53;;;6.50;;
11703;SDS011;5908;51.354;7.458;2023-06-26T00:55:37;6.82;;;5.95;;
11703;SDS011;5908;51.354;7.458;2023-06-26T00:58:04;7.03;;;6.32;;
11703;SDS011;5908;51.354;7.458;2023-06-26T01:00:31;7.45;;;6.65;;
11703;SDS011;5908;51.354;7.458;2023-06-26T01:02:58;7.47;;;6.55;;
11703;SDS011;5908;51.354;7.458;2023-06-26T01:05:24;6.90;;;5.95;;
11703;SDS011;5908;51.354;7.458;2023-06-26T01:07:54;7.55;;;6.68;;
11703;SDS011;5908;51.354;7.458;2023-06-26T01:10:22;7.57;;;6.88;;
11703;SDS011;5908;51.354;7.458;2023-06-26T01:12:52;9.50;;;7.20;;
11703;SDS011;5908;51.354;7.458;2023-06-26T01:15:19;7.53;;;6.82;;
11703;SDS011;5908;51.354;7.458;2023-06-26T01:17:46;7.40;;;6.70;;
11703;SDS011;5908;51.354;7.458;2023-06-26T01:20:13;8.43;;;7.00;;
11703;SDS011;5908;51.354;7.458;2023-06-26T01:22:43;7.47;;;6.78;;
11703;SDS011;5908;51.354;7.458;2023-06-26T01:25:17;9.60;;;6.72;;
11703;SDS011;5908;51.354;7.458;2023-06-26T01:27:51;7.25;;;6.47;;
11703;SDS011;5908;51.354;7.458;2023-06-26T01:30:20;8.15;;;6.85;;
11703;SDS011;5908;51.354;7.458;2023-06-26T01:32:48;7.50;;;6.63;;
11703;SDS011;5908;51.354;7.458;2023-06-26T01:35:16;7.30;;;6.57;;
11703;SDS011;5908;51.354;7.458;2023-06-26T01:37:43;7.13;;;6.43;;
11703;SDS011;5908;51.354;7.458;2023-06-26T01:40:10;7.85;;;7.05;;
11703;SDS011;5908;51.354;7.458;2023-06-26T01:42:37;8.57;;;6.78;;
11703;SDS011;5908;51.354;7.458;2023-06-26T01:45:07;6.72;;;6.13;;
11703;SDS011;5908;51.354;7.458;2023-06-26T01:47:40;7.20;;;6.50;;
11703;SDS011;5908;51.354;7.458;2023-06-26T01:50:15;6.95;;;6.25;;
11703;SDS011;5908;51.354;7.458;2023-06-26T01:52:49;7.00;;;6.30;;
11703;SDS011;5908;51.354;7.458;2023-06-26T01:55:28;8.25;;;6.55;;
11703;SDS011;5908;51.354;7.458;2023-06-26T01:58:01;7.05;;;6.35;;
11703;SDS011;5908;51.354;7.458;2023-06-26T02:00:29;7.40;;;6.13;;
11703;SDS011;5908;51.354;7.458;2023-06-26T02:02:57;7.45;;;6.15;;
11703;SDS011;5908;51.354;7.458;2023-06-26T02:05:24;7.60;;;6.57;;
11703;SDS011;5908;51.354;7.458;2023-06-26T02:07:51;8.88;;;6.63;;
11703;SDS011;5908;51.354;7.458;2023-06-26T02:10:17;7.50;;;6.40;;
11703;SDS011;5908;51.354;7.458;2023-06-26T02:12:44;7.53;;;6.82;;
11703;SDS011;5908;51.354;7.458;2023-06-26T02:15:11;7.10;;;6.40;;
11703;SDS011;5908;51.354;7.458;2023-06-26T02:17:39;7.60;;;6.82;;
11703;SDS011;5908;51.354;7.458;2023-06-26T02:20:06;7.60;;;6.72;;
11703;SDS011;5908;51.354;7.458;2023-06-26T02:22:35;7.35;;;6.60;;
11703;SDS011;5908;51.354;7.458;2023-06-26T02:25:02;9.23;;;6.47;;
11703;SDS011;5908;51.354;7.458;2023-06-26T02:27:29;9.85;;;6.28;;
11703;SDS011;5908;51.354;7.458;2023-06-26T02:29:55;7.55;;;6.40;;
11703;SDS011;5908;51.354;7.458;2023-06-26T02:32:22;8.27;;;6.43;;
11703;SDS011;5908;51.354;7.458;2023-06-26T02:34:50;7.88;;;6.95;;
11703;SDS011;5908;51.354;7.458;2023-06-26T02:37:17;7.60;;;6.70;;
11703;SDS011;5908;51.354;7.458;2023-06-26T02:39:44;6.72;;;5.93;;
11703;SDS011;5908;51.354;7.458;2023-06-26T02:42:11;7.70;;;6.80;;
11703;SDS011;5908;51.354;7.458;2023-06-26T02:44:37;7.30;;;6.47;;
11703;SDS011;5908;51.354;7.458;2023-06-26T02:47:04;7.38;;;6.68;;
11703;SDS011;5908;51.354;7.458;2023-06-26T02:49:31;7.97;;;6.70;;
11703;SDS011;5908;51.354;7.458;2023-06-26T02:51:59;7.20;;;6.50;;
11703;SDS011;5908;51.354;7.458;2023-06-26T02:54:26;7.78;;;6.63;;
11703;SDS011;5908;51.354;7.458;2023-06-26T02:56:53;7.68;;;6.70;;
11703;SDS011;5908;51.354;7.458;2023-06-26T02:59:19;6.72;;;5.95;;
11703;SDS011;5908;51.354;7.458;2023-06-26T03:01:46;7.60;;;6.80;;
11703;SDS011;5908;51.354;7.458;2023-06-26T03:04:13;8.25;;;6.43;;
11703;SDS011;5908;51.354;7.458;2023-06-26T03:06:42;7.32;;;6.15;;
11703;SDS011;5908;51.354;7.458;2023-06-26T03:09:10;7.13;;;6.43;;
11703;SDS011;5908;51.354;7.458;2023-06-26T03:11:37;8.43;;;6.38;;
11703;SDS011;5908;51.354;7.458;2023-06-26T03:14:04;7.40;;;6.70;;
11703;SDS011;5908;51.354;7.458;2023-06-26T03:16:30;7.78;;;6.53;;
11703;SDS011;5908;51.354;7.458;2023-06-26T03:18:57;7.82;;;7.03;;
11703;SDS011;5908;51.354;7.458;2023-06-26T03:21:24;6.93;;;6.22;;
11703;SDS011;5908;51.354;7.458;2023-06-26T03:23:51;7.05;;;6.40;;
11703;SDS011;5908;51.354;7.458;2023-06-26T03:26:19;7.40;;;6.70;;
11703;SDS011;5908;51.354;7.458;2023-06-26T03:28:52;7.03;;;6.30;;
11703;SDS011;5908;51.354;7.458;2023-06-26T03:31:19;7.90;;;6.85;;
11703;SDS011;5908;51.354;7.458;2023-06-26T03:33:47;6.82;;;6.13;;
11703;SDS011;5908;51.354;7.458;2023-06-26T03:36:13;7.57;;;6.72;;
11703;SDS011;5908;51.354;7.458;2023-06-26T03:38:40;7.63;;;6.90;;
11703;SDS011;5908;51.354;7.458;2023-06-26T03:41:07;7.82;;;7.00;;
11703;SDS011;5908;51.354;7.458;2023-06-26T03:43:35;7.20;;;6.30;;
11703;SDS011;5908;51.354;7.458;2023-06-26T03:46:02;7.45;;;6.28;;
11703;SDS011;5908;51.354;7.458;2023-06-26T03:48:29;8.77;;;6.47;;
11703;SDS011;5908;51.354;7.458;2023-06-26T03:50:56;7.45;;;6.65;;
11703;SDS011;5908;51.354;7.458;2023-06-26T03:53:22;6.95;;;6.25;;
11703;SDS011;5908;51.354;7.458;2023-06-26T03:55:49;7.72;;;6.20;;
11703;SDS011;5908;51.354;7.458;2023-06-26T03:58:16;8.38;;;6.63;;
11703;SDS011;5908;51.354;7.458;2023-06-26T04:00:44;7.13;;;6.43;;
11703;SDS011;5908;51.354;7.458;2023-06-26T04:03:12;7.47;;;6.80;;
11703;SDS011;5908;51.354;7.458;2023-06-26T04:05:38;7.25;;;6.55;;
11703;SDS011;5908;51.354;7.458;2023-06-26T04:12:59;7.43;;;6.68;;
11703;SDS011;5908;51.354;7.458;2023-06-26T04:15:25;7.97;;;7.00;;
11703;SDS011;5908;51.354;7.458;2023-06-26T04:17:53;7.05;;;6.38;;
11703;SDS011;5908;51.354;7.458;2023-06-26T04:20:20;7.17;;;6.57;;
11703;SDS011;5908;51.354;7.458;2023-06-26T04:22:47;8.18;;;7.38;;
11703;SDS011;5908;51.354;7.458;2023-06-26T04:25:13;7.47;;;6.80;;
11703;SDS011;5908;51.354;7.458;2023-06-26T04:27:40;7.90;;;7.05;;
11703;SDS011;5908;51.354;7.458;2023-06-26T04:30:09;7.45;;;6.75;;
11703;SDS011;5908;51.354;7.458;2023-06-26T04:32:37;7.82;;;7.13;;
11703;SDS011;5908;51.354;7.458;2023-06-26T04:35:05;7.72;;;6.80;;
11703;SDS011;5908;51.354;7.458;2023-06-26T04:37:33;8.10;;;7.30;;
11703;SDS011;5908;51.354;7.458;2023-06-26T04:40:01;7.50;;;6.80;;
11703;SDS011;5908;51.354;7.458;2023-06-26T04:42:29;8.07;;;7.28;;
11703;SDS011;5908;51.354;7.458;2023-06-26T04:44:56;7.70;;;6.97;;
11703;SDS011;5908;51.354;7.458;2023-06-26T04:47:22;7.87;;;7.07;;
11703;SDS011;5908;51.354;7.458;2023-06-26T04:49:49;7.40;;;6.60;;
11703;SDS011;5908;51.354;7.458;2023-06-26T04:52:17;7.53;;;6.75;;
11703;SDS011;5908;51.354;7.458;2023-06-26T04:54:44;8.02;;;6.72;;
11703;SDS011;5908;51.354;7.458;2023-06-26T04:57:11;7.68;;;6.85;;
11703;SDS011;5908;51.354;7.458;2023-06-26T04:59:38;8.02;;;7.28;;
11703;SDS011;5908;51.354;7.458;2023-06-26T05:02:05;7.88;;;7.10;;
11703;SDS011;5908;51.354;7.458;2023-06-26T05:04:32;7.65;;;6.90;;
11703;SDS011;5908;51.354;7.458;2023-06-26T05:06:58;8.02;;;7.00;;
11703;SDS011;5908;51.354;7.458;2023-06-26T05:09:27;8.15;;;7.05;;
11703;SDS011;5908;51.354;7.458;2023-06-26T05:11:53;9.65;;;7.60;;
11703;SDS011;5908;51.354;7.458;2023-06-26T05:14:20;9.93;;;7.68;;
11703;SDS011;5908;51.354;7.458;2023-06-26T05:16:47;8.27;;;7.47;;
11703;SDS011;5908;51.354;7.458;2023-06-26T05:19:13;10.27;;;7.60;;
11703;SDS011;5908;51.354;7.458;2023-06-26T05:21:40;8.73;;;7.82;;
11703;SDS011;5908;51.354;7.458;2023-06-26T05:24:07;8.35;;;7.50;;
11703;SDS011;5908;51.354;7.458;2023-06-26T05:26:38;9.00;;;8.07;;
11703;SDS011;5908;51.354;7.458;2023-06-26T05:29:05;8.52;;;7.63;;
11703;SDS011;5908;51.354;7.458;2023-06-26T05:31:33;8.32;;;7.53;;
11703;SDS011;5908;51.354;7.458;2023-06-26T05:34:02;10.77;;;8.98;;
11703;SDS011;5908;51.354;7.458;2023-06-26T05:36:30;15.93;;;9.85;;
11703;SDS011;5908;51.354;7.458;2023-06-26T05:38:59;12.90;;;8.40;;
11703;SDS011;5908;51.354;7.458;2023-06-26T05:41:26;10.25;;;8.25;;
11703;SDS011;5908;51.354;7.458;2023-06-26T05:43:54;9.40;;;8.10;;
11703;SDS011;5908;51.354;7.458;2023-06-26T05:46:21;9.27;;;8.25;;
11703;SDS011;5908;51.354;7.458;2023-06-26T05:48:48;11.25;;;8.20;;
11703;SDS011;5908;51.354;7.458;2023-06-26T05:51:15;8.55;;;7.60;;
11703;SDS011;5908;51.354;7.458;2023-06-26T05:53:42;8.82;;;7.45;;
11703;SDS011;5908;51.354;7.458;2023-06-26T05:56:09;8.45;;;7.47;;
11703;SDS011;5908;51.354;7.458;2023-06-26T05:58:37;9.07;;;7.28;;
11703;SDS011;5908;51.354;7.458;2023-06-26T06:01:05;9.18;;;8.27;;
11703;SDS011;5908;51.354;7.458;2023-06-26T06:03:32;12.35;;;7.82;;
11703;SDS011;5908;51.354;7.458;2023-06-26T06:08:25;10.35;;;7.28;;
11703;SDS011;5908;51.354;7.458;2023-06-26T06:10:52;8.23;;;7.22;;
11703;SDS011;5908;51.354;7.458;2023-06-26T06:13:19;9.23;;;6.80;;
11703;SDS011;5908;51.354;7.458;2023-06-26T06:15:46;9.00;;;6.80;;
11703;SDS011;5908;51.354;7.458;2023-06-26T06:18:14;8.57;;;6.35;;
11703;SDS011;5908;51.354;7.458;2023-06-26T06:20:41;9.20;;;6.97;;
11703;SDS011;5908;51.354;7.458;2023-06-26T06:23:07;8.90;;;6.75;;
11703;SDS011;5908;51.354;7.458;2023-06-26T06:25:34;7.60;;;6.80;;
11703;SDS011;5908;51.354;7.458;2023-06-26T06:28:01;8.48;;;6.43;;
11703;SDS011;5908;51.354;7.458;2023-06-26T06:30:28;9.50;;;6.65;;
11703;SDS011;5908;51.354;7.458;2023-06-26T06:32:54;9.27;;;6.85;;
11703;SDS011;5908;51.354;7.458;2023-06-26T06:35:22;9.13;;;6.65;;
11703;SDS011;5908;51.354;7.458;2023-06-26T06:37:49;8.52;;;6.70;;
11703;SDS011;5908;51.354;7.458;2023-06-26T06:40:16;14.05;;;11.32;;
11703;SDS011;5908;51.354;7.458;2023-06-26T06:42:43;16.52;;;14.75;;
11703;SDS011;5908;51.354;7.458;2023-06-26T06:45:09;23.48;;;20.52;;
11703;SDS011;5908;51.354;7.458;2023-06-26T06:47:36;11.73;;;10.50;;
11703;SDS011;5908;51.354;7.458;2023-06-26T06:50:03;13.02;;;11.50;;
11703;SDS011;5908;51.354;7.458;2023-06-26T06:52:35;10.57;;;8.02;;
11703;SDS011;5908;51.354;7.458;2023-06-26T06:55:03;9.90;;;7.68;;
11703;SDS011;5908;51.354;7.458;2023-06-26T06:57:33;9.52;;;6.93;;
11703;SDS011;5908;51.354;7.458;2023-06-26T07:00:02;10.77;;;6.80;;
11703;SDS011;5908;51.354;7.458;2023-06-26T07:02:30;8.90;;;6.00;;
11703;SDS011;5908;51.354;7.458;2023-06-26T07:04:57;14.98;;;13.30;;
11703;SDS011;5908;51.354;7.458;2023-06-26T07:07:25;11.70;;;8.93;;
11703;SDS011;5908;51.354;7.458;2023-06-26T07:09:57;10.95;;;9.18;;
11703;SDS011;5908;51.354;7.458;2023-06-26T07:12:24;9.38;;;7.50;;
11703;SDS011;5908;51.354;7.458;2023-06-26T07:14:51;13.03;;;8.43;;
11703;SDS011;5908;51.354;7.458;2023-06-26T07:17:18;8.73;;;6.75;;
11703;SDS011;5908;51.354;7.458;2023-06-26T07:19:45;9.02;;;6.53;;
11703;SDS011;5908;51.354;7.458;2023-06-26T07:22:12;8.50;;;6.85;;
11703;SDS011;5908;51.354;7.458;2023-06-26T07:24:39;7.32;;;6.43;;
11703;SDS011;5908;51.354;7.458;2023-06-26T07:27:07;7.87;;;6.20;;
11703;SDS011;5908;51.354;7.458;2023-06-26T07:29:35;8.60;;;5.90;;
11703;SDS011;5908;51.354;7.458;2023-06-26T07:34:28;7.70;;;5.63;;
11703;SDS011;5908;51.354;7.458;2023-06-26T07:36:55;9.17;;;6.20;;
11703;SDS011;5908;51.354;7.458;2023-06-26T07:39:22;8.07;;;6.60;;
11703;SDS011;5908;51.354;7.458;2023-06-26T07:41:48;12.38;;;6.53;;
11703;SDS011;5908;51.354;7.458;2023-06-26T07:44:16;8.77;;;6.80;;
11703;SDS011;5908;51.354;7.458;2023-06-26T07:46:43;8.15;;;6.70;;
11703;SDS011;5908;51.354;7.458;2023-06-26T07:49:10;8.02;;;6.25;;
11703;SDS011;5908;51.354;7.458;2023-06-26T08:03:53;8.93;;;6.53;;
11703;SDS011;5908;51.354;7.458;2023-06-26T08:06:20;9.68;;;6.32;;
11703;SDS011;5908;51.354;7.458;2023-06-26T08:08:46;8.45;;;6.28;;
11703;SDS011;5908;51.354;7.458;2023-06-26T08:11:13;9.48;;;6.00;;
11703;SDS011;5908;51.354;7.458;2023-06-26T08:13:40;9.57;;;6.47;;
11703;SDS011;5908;51.354;7.458;2023-06-26T08:16:07;10.77;;;6.60;;
11703;SDS011;5908;51.354;7.458;2023-06-26T08:18:35;9.23;;;6.55;;
11703;SDS011;5908;51.354;7.458;2023-06-26T08:25:55;10.63;;;6.80;;
11703;SDS011;5908;51.354;7.458;2023-06-26T08:30:50;11.70;;;9.02;;
11703;SDS011;5908;51.354;7.458;2023-06-26T08:33:18;8.88;;;6.78;;
11703;SDS011;5908;51.354;7.458;2023-06-26T08:38:12;10.48;;;7.07;;
11703;SDS011;5908;51.354;7.458;2023-06-26T08:40:39;7.70;;;6.45;;
11703;SDS011;5908;51.354;7.458;2023-06-26T08:43:06;13.35;;;7.50;;
11703;SDS011;5908;51.354;7.458;2023-06-26T08:45:33;11.13;;;8.05;;
11703;SDS011;5908;51.354;7.458;2023-06-26T08:48:00;10.25;;;7.93;;
11703;SDS011;5908;51.354;7.458;2023-06-26T08:57:57;11.23;;;6.82;;
11703;SDS011;5908;51.354;7.458;2023-06-26T09:00:24;10.00;;;8.15;;
11703;SDS011;5908;51.354;7.458;2023-06-26T09:07:45;13.18;;;8.35;;
11703;SDS011;5908;51.354;7.458;2023-06-26T09:10:13;13.70;;;9.27;;
11703;SDS011;5908;51.354;7.458;2023-06-26T09:15:06;12.35;;;9.45;;
11703;SDS011;5908;51.354;7.458;2023-06-26T09:17:34;13.15;;;9.85;;
11703;SDS011;5908;51.354;7.458;2023-06-26T09:20:05;12.00;;;9.98;;
11703;SDS011;5908;51.354;7.458;2023-06-26T09:22:36;11.25;;;10.15;;
11703;SDS011;5908;51.354;7.458;2023-06-26T09:25:04;10.25;;;8.65;;
11703;SDS011;5908;51.354;7.458;2023-06-26T09:27:33;12.13;;;9.45;;
11703;SDS011;5908;51.354;7.458;2023-06-26T09:30:01;13.15;;;11.13;;
11703;SDS011;5908;51.354;7.458;2023-06-26T09:32:28;12.13;;;10.93;;
11703;SDS011;5908;51.354;7.458;2023-06-26T09:34:55;16.33;;;12.77;;
11703;SDS011;5908;51.354;7.458;2023-06-26T09:37:22;14.77;;;12.90;;
11703;SDS011;5908;51.354;7.458;2023-06-26T09:39:50;15.13;;;11.93;;
11703;SDS011;5908;51.354;7.458;2023-06-26T09:47:12;14.10;;;9.30;;
11703;SDS011;5908;51.354;7.458;2023-06-26T09:49:42;14.98;;;10.70;;
11703;SDS011;5908;51.354;7.458;2023-06-26T09:52:09;15.10;;;13.50;;
11703;SDS011;5908;51.354;7.458;2023-06-26T09:54:39;13.63;;;12.27;;
11703;SDS011;5908;51.354;7.458;2023-06-26T09:57:08;15.82;;;13.15;;
11703;SDS011;5908;51.354;7.458;2023-06-26T09:59:35;15.35;;;13.68;;
11703;SDS011;5908;51.354;7.458;2023-06-26T10:02:04;13.18;;;10.88;;
11703;SDS011;5908;51.354;7.458;2023-06-26T10:04:31;12.45;;;11.25;;
11703;SDS011;5908;51.354;7.458;2023-06-26T10:07:00;12.07;;;9.40;;
11703;SDS011;5908;51.354;7.458;2023-06-26T10:09:28;11.48;;;7.60;;
11703;SDS011;5908;51.354;7.458;2023-06-26T10:16:59;10.95;;;7.00;;
11703;SDS011;5908;51.354;7.458;2023-06-26T10:19:28;8.35;;;6.18;;
11703;SDS011;5908;51.354;7.458;2023-06-26T10:24:24;10.80;;;7.22;;
11703;SDS011;5908;51.354;7.458;2023-06-26T10:26:55;10.40;;;7.15;;
11703;SDS011;5908;51.354;7.458;2023-06-26T10:29:33;10.80;;;7.25;;
11703;SDS011;5908;51.354;7.458;2023-06-26T10:32:01;10.85;;;7.38;;
11703;SDS011;5908;51.354;7.458;2023-06-26T10:34:32;9.43;;;6.68;;
11703;SDS011;5908;51.354;7.458;2023-06-26T10:37:01;8.73;;;5.88;;
11703;SDS011;5908;51.354;7.458;2023-06-26T10:39:32;6.97;;;5.13;;
11703;SDS011;5908;51.354;7.458;2023-06-26T10:42:12;9.98;;;6.47;;
11703;SDS011;5908;51.354;7.458;2023-06-26T10:44:40;8.43;;;6.38;;
11703;SDS011;5908;51.354;7.458;2023-06-26T10:47:08;8.50;;;6.75;;
11703;SDS011;5908;51.354;7.458;2023-06-26T10:49:37;9.90;;;5.97;;
11703;SDS011;5908;51.354;7.458;2023-06-26T10:52:05;8.25;;;5.80;;
11703;SDS011;5908;51.354;7.458;2023-06-26T10:54:32;7.22;;;5.10;;
11703;SDS011;5908;51.354;7.458;2023-06-26T10:56:59;10.93;;;5.30;;
11703;SDS011;5908;51.354;7.458;2023-06-26T10:59:28;7.53;;;5.32;;
11703;SDS011;5908;51.354;7.458;2023-06-26T11:01:57;8.40;;;5.13;;
11703;SDS011;5908;51.354;7.458;2023-06-26T11:04:38;7.32;;;5.00;;
11703;SDS011;5908;51.354;7.458;2023-06-26T11:07:16;6.55;;;4.35;;
11703;SDS011;5908;51.354;7.458;2023-06-26T11:09:57;8.98;;;5.75;;
11703;SDS011;5908;51.354;7.458;2023-06-26T11:12:37;7.65;;;5.32;;
11703;SDS011;5908;51.354;7.458;2023-06-26T11:15:07;7.65;;;4.80;;
11703;SDS011;5908;51.354;7.458;2023-06-26T11:17:35;8.05;;;4.30;;
11703;SDS011;5908;51.354;7.458;2023-06-26T11:20:04;7.65;;;4.50;;
11703;SDS011;5908;51.354;7.458;2023-06-26T11:22:33;5.75;;;4.10;;
11703;SDS011;5908;51.354;7.458;2023-06-26T11:25:01;7.67;;;5.37;;
11703;SDS011;5908;51.354;7.458;2023-06-26T11:27:30;7.80;;;4.90;;
11703;SDS011;5908;51.354;7.458;2023-06-26T11:29:58;7.45;;;4.68;;
11703;SDS011;5908;51.354;7.458;2023-06-26T11:32:26;7.65;;;4.60;;
11703;SDS011;5908;51.354;7.458;2023-06-26T11:34:53;7.28;;;4.25;;
11703;SDS011;5908;51.354;7.458;2023-06-26T11:37:21;8.25;;;4.80;;
11703;SDS011;5908;51.354;7.458;2023-06-26T11:39:48;9.68;;;4.90;;
11703;SDS011;5908;51.354;7.458;2023-06-26T11:42:15;7.03;;;4.55;;
11703;SDS011;5908;51.354;7.458;2023-06-26T11:44:42;7.32;;;4.45;;
11703;SDS011;5908;51.354;7.458;2023-06-26T11:47:12;7.32;;;4.38;;
11703;SDS011;5908;51.354;7.458;2023-06-26T11:49:41;7.53;;;4.45;;
11703;SDS011;5908;51.354;7.458;2023-06-26T11:52:08;7.30;;;4.40;;
11703;SDS011;5908;51.354;7.458;2023-06-26T11:54:36;5.78;;;4.20;;
11703;SDS011;5908;51.354;7.458;2023-06-26T11:57:04;7.60;;;4.10;;
11703;SDS011;5908;51.354;7.458;2023-06-26T12:01:59;7.13;;;3.70;;
11703;SDS011;5908;51.354;7.458;2023-06-26T12:04:26;8.13;;;4.10;;
11703;SDS011;5908;51.354;7.458;2023-06-26T12:06:53;6.95;;;3.33;;
11703;SDS011;5908;51.354;7.458;2023-06-26T12:19:12;8.20;;;3.63;;
11703;SDS011;5908;51.354;7.458;2023-06-26T12:21:46;10.88;;;3.95;;
11703;SDS011;5908;51.354;7.458;2023-06-26T12:24:17;11.75;;;3.78;;
11703;SDS011;5908;51.354;7.458;2023-06-26T12:26:45;6.78;;;3.10;;
11703;SDS011;5908;51.354;7.458;2023-06-26T12:29:15;7.40;;;4.57;;
11703;SDS011;5908;51.354;7.458;2023-06-26T12:31:44;8.82;;;5.25;;
11703;SDS011;5908;51.354;7.458;2023-06-26T12:34:12;5.13;;;3.22;;
11703;SDS011;5908;51.354;7.458;2023-06-26T12:36:43;5.82;;;3.00;;
11703;SDS011;5908;51.354;7.458;2023-06-26T12:39:12;6.13;;;3.00;;
11703;SDS011;5908;51.354;7.458;2023-06-26T12:41:46;4.55;;;2.85;;
11703;SDS011;5908;51.354;7.458;2023-06-26T12:44:22;3.60;;;2.80;;
11703;SDS011;5908;51.354;7.458;2023-06-26T12:49:20;5.53;;;2.53;;
11703;SDS011;5908;51.354;7.458;2023-06-26T12:51:47;5.97;;;2.73;;
11703;SDS011;5908;51.354;7.458;2023-06-26T12:56:40;5.20;;;2.35;;
11703;SDS011;5908;51.354;7.458;2023-06-26T12:59:07;3.60;;;2.40;;
11703;SDS011;5908;51.354;7.458;2023-06-26T13:06:29;4.53;;;2.22;;
11703;SDS011;5908;51.354;7.458;2023-06-26T13:08:56;3.75;;;2.08;;
11703;SDS011;5908;51.354;7.458;2023-06-26T13:11:23;3.42;;;2.10;;
11703;SDS011;5908;51.354;7.458;2023-06-26T13:13:50;2.58;;;2.13;;
11703;SDS011;5908;51.354;7.458;2023-06-26T13:16:17;6.72;;;2.40;;
11703;SDS011;5908;51.354;7.458;2023-06-26T13:18:46;5.88;;;2.40;;
11703;SDS011;5908;51.354;7.458;2023-06-26T13:28:33;2.97;;;1.83;;
11703;SDS011;5908;51.354;7.458;2023-06-26T13:31:00;3.28;;;2.00;;
11703;SDS011;5908;51.354;7.458;2023-06-26T13:33:27;3.97;;;1.90;;
11703;SDS011;5908;51.354;7.458;2023-06-26T13:35:55;3.92;;;1.60;;
11703;SDS011;5908;51.354;7.458;2023-06-26T13:38:21;3.50;;;1.80;;
11703;SDS011;5908;51.354;7.458;2023-06-26T13:40:50;3.10;;;1.70;;
11703;SDS011;5908;51.354;7.458;2023-06-26T13:43:17;2.55;;;1.60;;
11703;SDS011;5908;51.354;7.458;2023-06-26T13:45:44;4.38;;;2.03;;
11703;SDS011;5908;51.354;7.458;2023-06-26T14:00:26;4.93;;;2.05;;
11703;SDS011;5908;51.354;7.458;2023-06-26T14:02:53;2.60;;;1.70;;
11703;SDS011;5908;51.354;7.458;2023-06-26T14:10:16;2.50;;;1.70;;
11703;SDS011;5908;51.354;7.458;2023-06-26T14:17:36;2.92;;;1.73;;
11703;SDS011;5908;51.354;7.458;2023-06-26T14:37:16;6.30;;;1.92;;
11703;SDS011;5908;51.354;7.458;2023-06-26T14:39:44;1.83;;;1.60;;
11703;SDS011;5908;51.354;7.458;2023-06-26T14:42:11;2.80;;;1.50;;
11703;SDS011;5908;51.354;7.458;2023-06-26T14:44:40;4.47;;;1.58;;
11703;SDS011;5908;51.354;7.458;2023-06-26T14:47:06;3.45;;;1.60;;
11703;SDS011;5908;51.354;7.458;2023-06-26T14:49:33;2.90;;;1.60;;
11703;SDS011;5908;51.354;7.458;2023-06-26T14:52:00;3.42;;;1.65;;
11703;SDS011;5908;51.354;7.458;2023-06-26T14:54:27;4.72;;;1.65;;
11703;SDS011;5908;51.354;7.458;2023-06-26T14:56:53;3.00;;;1.60;;
11703;SDS011;5908;51.354;7.458;2023-06-26T15:01:48;3.97;;;1.50;;
11703;SDS011;5908;51.354;7.458;2023-06-26T15:04:15;2.88;;;1.73;;
11703;SDS011;5908;51.354;7.458;2023-06-26T15:06:42;3.42;;;1.63;;
11703;SDS011;5908;51.354;7.458;2023-06-26T15:11:35;4.32;;;1.85;;
11703;SDS011;5908;51.354;7.458;2023-06-26T15:14:02;2.95;;;1.70;;
11703;SDS011;5908;51.354;7.458;2023-06-26T15:16:29;4.65;;;1.60;;
11703;SDS011;5908;51.354;7.458;2023-06-26T15:21:23;2.40;;;1.58;;
11703;SDS011;5908;51.354;7.458;2023-06-26T15:23:50;3.70;;;1.80;;
11703;SDS011;5908;51.354;7.458;2023-06-26T15:26:17;4.85;;;1.60;;
11703;SDS011;5908;51.354;7.458;2023-06-26T15:28:44;3.08;;;1.80;;
11703;SDS011;5908;51.354;7.458;2023-06-26T15:31:11;3.27;;;1.80;;
11703;SDS011;5908;51.354;7.458;2023-06-26T15:33:38;4.10;;;1.77;;
11703;SDS011;5908;51.354;7.458;2023-06-26T15:36:06;4.00;;;1.70;;
11703;SDS011;5908;51.354;7.458;2023-06-26T15:38:33;4.03;;;1.70;;
11703;SDS011;5908;51.354;7.458;2023-06-26T15:41:00;3.85;;;1.70;;
11703;SDS011;5908;51.354;7.458;2023-06-26T15:45:54;6.60;;;1.55;;
11703;SDS011;5908;51.354;7.458;2023-06-26T15:48:21;1.73;;;1.40;;
11703;SDS011;5908;51.354;7.458;2023-06-26T15:53:18;5.25;;;1.42;;
11703;SDS011;5908;51.354;7.458;2023-06-26T15:55:45;2.17;;;1.60;;
11703;SDS011;5908;51.354;7.458;2023-06-26T15:58:12;4.40;;;1.60;;
11703;SDS011;5908;51.354;7.458;2023-06-26T16:00:39;3.08;;;1.58;;
11703;SDS011;5908;51.354;7.458;2023-06-26T16:03:06;4.55;;;1.40;;
11703;SDS011;5908;51.354;7.458;2023-06-26T16:05:33;3.65;;;1.60;;
11703;SDS011;5908;51.354;7.458;2023-06-26T16:08:00;3.05;;;1.70;;
11703;SDS011;5908;51.354;7.458;2023-06-26T16:12:55;2.70;;;1.80;;
11703;SDS011;5908;51.354;7.458;2023-06-26T16:15:21;2.42;;;1.50;;
11703;SDS011;5908;51.354;7.458;2023-06-26T16:17:48;3.40;;;1.55;;
11703;SDS011;5908;51.354;7.458;2023-06-26T16:20:15;2.75;;;1.90;;
11703;SDS011;5908;51.354;7.458;2023-06-26T16:22:42;3.33;;;1.77;;
11703;SDS011;5908;51.354;7.458;2023-06-26T16:25:09;5.22;;;1.98;;
11703;SDS011;5908;51.354;7.458;2023-06-26T16:27:37;3.08;;;1.80;;
11703;SDS011;5908;51.354;7.458;2023-06-26T16:30:04;3.42;;;1.77;;
11703;SDS011;5908;51.354;7.458;2023-06-26T16:32:31;5.03;;;1.75;;
11703;SDS011;5908;51.354;7.458;2023-06-26T16:34:58;3.67;;;2.00;;
11703;SDS011;5908;51.354;7.458;2023-06-26T16:37:25;2.00;;;1.70;;
11703;SDS011;5908;51.354;7.458;2023-06-26T16:39:52;3.22;;;1.70;;
11703;SDS011;5908;51.354;7.458;2023-06-26T16:42:19;3.30;;;1.67;;
11703;SDS011;5908;51.354;7.458;2023-06-26T16:44:47;4.47;;;1.90;;
11703;SDS011;5908;51.354;7.458;2023-06-26T16:47:14;3.83;;;1.92;;
11703;SDS011;5908;51.354;7.458;2023-06-26T16:49:42;3.40;;;2.08;;
11703;SDS011;5908;51.354;7.458;2023-06-26T16:52:09;3.53;;;1.90;;
11703;SDS011;5908;51.354;7.458;2023-06-26T16:54:35;3.28;;;1.60;;
11703;SDS011;5908;51.354;7.458;2023-06-26T16:57:02;3.83;;;1.65;;
11703;SDS011;5908;51.354;7.458;2023-06-26T16:59:29;2.13;;;1.65;;
11703;SDS011;5908;51.354;7.458;2023-06-26T17:01:57;2.95;;;1.60;;
11703;SDS011;5908;51.354;7.458;2023-06-26T17:04:27;2.60;;;1.75;;
11703;SDS011;5908;51.354;7.458;2023-06-26T17:06:54;2.80;;;1.55;;
11703;SDS011;5908;51.354;7.458;2023-06-26T17:09:21;2.28;;;1.45;;
11703;SDS011;5908;51.354;7.458;2023-06-26T17:11:47;2.45;;;1.55;;
11703;SDS011;5908;51.354;7.458;2023-06-26T17:14:14;2.17;;;1.50;;
11703;SDS011;5908;51.354;7.458;2023-06-26T17:16:41;3.17;;;1.52;;
11703;SDS011;5908;51.354;7.458;2023-06-26T17:19:09;2.92;;;1.60;;
11703;SDS011;5908;51.354;7.458;2023-06-26T17:21:36;3.08;;;1.60;;
11703;SDS011;5908;51.354;7.458;2023-06-26T17:24:03;2.15;;;1.38;;